sensor_id;sensor_type;location;lat;lon;timestamp;temperature;humidity
39371;DHT22;25099;51.946;4.838;2022-08-25T00:01:42;22.80;99.90
39371;DHT22;25099;51.946;4.838;2022-08-25T00:04:11;22.70;99.90
39371;DHT22;25099;51.946;4.838;2022-08-25T00:06:39;22.70;99.90
39371;DHT22;25099;51.946;4.838;2022-08-25T00:09:06;22.70;99.90
39371;DHT22;25099;51.946;4.838;2022-08-25T00:11:34;22.70;99.90
39371;DHT22;25099;51.946;4.838;2022-08-25T00:14:02;22.60;99.90
39371;DHT22;25099;51.946;4.838;2022-08-25T00:16:29;22.60;99.90
39371;DHT22;25099;51.946;4.838;2022-08-25T00:19:03;22.60;99.90
39371;DHT22;25099;51.946;4.838;2022-08-25T00:21:30;22.50;99.90
39371;DHT22;25099;51.946;4.838;2022-08-25T00:23:56;22.50;99.90
39371;DHT22;25099;51.946;4.838;2022-08-25T00:26:23;22.60;99.90
39371;DHT22;25099;51.946;4.838;2022-08-25T00:28:50;22.50;99.90
39371;DHT22;25099;51.946;4.838;2022-08-25T00:31:19;22.50;99.90
39371;DHT22;25099;51.946;4.838;2022-08-25T00:33:46;22.50;99.90
39371;DHT22;25099;51.946;4.838;2022-08-25T00:36:13;22.40;99.90
39371;DHT22;25099;51.946;4.838;2022-08-25T00:38:41;22.40;99.90
39371;DHT22;25099;51.946;4.838;2022-08-25T00:41:08;22.40;99.90
39371;DHT22;25099;51.946;4.838;2022-08-25T00:43:48;22.40;99.90
39371;DHT22;25099;51.946;4.838;2022-08-25T00:46:19;22.30;99.90
39371;DHT22;25099;51.946;4.838;2022-08-25T00:48:48;22.30;99.90
39371;DHT22;25099;51.946;4.838;2022-08-25T00:51:18;22.30;99.90
39371;DHT22;25099;51.946;4.838;2022-08-25T00:53:46;22.30;99.90
39371;DHT22;25099;51.946;4.838;2022-08-25T00:56:13;22.20;99.90
39371;DHT22;25099;51.946;4.838;2022-08-25T00:58:39;22.20;99.90
39371;DHT22;25099;51.946;4.838;2022-08-25T01:01:06;22.20;99.90
39371;DHT22;25099;51.946;4.838;2022-08-25T01:03:32;22.10;99.90
39371;DHT22;25099;51.946;4.838;2022-08-25T01:05:59;22.10;99.90
39371;DHT22;25099;51.946;4.838;2022-08-25T01:08:27;22.10;99.90
39371;DHT22;25099;51.946;4.838;2022-08-25T01:10:54;22.00;99.90
39371;DHT22;25099;51.946;4.838;2022-08-25T01:13:51;22.00;99.90
39371;DHT22;25099;51.946;4.838;2022-08-25T01:16:17;22.00;99.90
39371;DHT22;25099;51.946;4.838;2022-08-25T01:18:44;21.90;99.90
39371;DHT22;25099;51.946;4.838;2022-08-25T01:21:11;21.90;99.90
39371;DHT22;25099;51.946;4.838;2022-08-25T01:23:37;21.90;99.90
39371;DHT22;25099;51.946;4.838;2022-08-25T01:26:11;21.90;99.90
39371;DHT22;25099;51.946;4.838;2022-08-25T01:28:38;21.90;99.90
39371;DHT22;25099;51.946;4.838;2022-08-25T01:31:25;21.90;99.90
39371;DHT22;25099;51.946;4.838;2022-08-25T01:33:50;21.80;99.90
39371;DHT22;25099;51.946;4.838;2022-08-25T01:36:20;21.80;99.90
39371;DHT22;25099;51.946;4.838;2022-08-25T01:38:46;21.80;99.90
39371;DHT22;25099;51.946;4.838;2022-08-25T01:41:15;21.70;99.90
39371;DHT22;25099;51.946;4.838;2022-08-25T01:43:40;21.80;99.90
39371;DHT22;25099;51.946;4.838;2022-08-25T01:46:06;21.70;99.90
39371;DHT22;25099;51.946;4.838;2022-08-25T01:48:32;21.70;99.90
39371;DHT22;25099;51.946;4.838;2022-08-25T01:50:57;21.70;99.90
39371;DHT22;25099;51.946;4.838;2022-08-25T01:53:28;21.70;99.90
39371;DHT22;25099;51.946;4.838;2022-08-25T01:55:54;21.70;99.90
39371;DHT22;25099;51.946;4.838;2022-08-25T01:58:35;21.60;99.90
39371;DHT22;25099;51.946;4.838;2022-08-25T02:01:05;21.60;99.90
39371;DHT22;25099;51.946;4.838;2022-08-25T02:03:32;21.60;99.90
39371;DHT22;25099;51.946;4.838;2022-08-25T02:06:00;21.50;99.90
39371;DHT22;25099;51.946;4.838;2022-08-25T02:08:25;21.50;99.90
39371;DHT22;25099;51.946;4.838;2022-08-25T02:10:52;21.50;99.90
39371;DHT22;25099;51.946;4.838;2022-08-25T02:13:20;21.50;99.90
39371;DHT22;25099;51.946;4.838;2022-08-25T02:15:52;21.40;99.90
39371;DHT22;25099;51.946;4.838;2022-08-25T02:18:19;21.40;99.90
39371;DHT22;25099;51.946;4.838;2022-08-25T02:20:45;21.40;99.90
39371;DHT22;25099;51.946;4.838;2022-08-25T02:23:11;21.40;99.90
39371;DHT22;25099;51.946;4.838;2022-08-25T02:25:38;21.30;99.90
39371;DHT22;25099;51.946;4.838;2022-08-25T02:28:04;21.30;99.90
39371;DHT22;25099;51.946;4.838;2022-08-25T02:30:31;21.40;99.90
39371;DHT22;25099;51.946;4.838;2022-08-25T02:32:57;21.30;99.90
39371;DHT22;25099;51.946;4.838;2022-08-25T02:35:23;21.30;99.90
39371;DHT22;25099;51.946;4.838;2022-08-25T02:37:52;21.20;99.90
39371;DHT22;25099;51.946;4.838;2022-08-25T02:40:18;21.20;99.90
39371;DHT22;25099;51.946;4.838;2022-08-25T02:42:46;21.20;99.90
39371;DHT22;25099;51.946;4.838;2022-08-25T02:45:12;21.20;99.90
39371;DHT22;25099;51.946;4.838;2022-08-25T02:47:39;21.20;99.90
39371;DHT22;25099;51.946;4.838;2022-08-25T02:50:06;21.10;99.90
39371;DHT22;25099;51.946;4.838;2022-08-25T02:52:32;21.10;99.90
39371;DHT22;25099;51.946;4.838;2022-08-25T02:55:02;21.10;99.90
39371;DHT22;25099;51.946;4.838;2022-08-25T02:57:29;21.00;99.90
39371;DHT22;25099;51.946;4.838;2022-08-25T02:59:55;21.00;99.90
39371;DHT22;25099;51.946;4.838;2022-08-25T03:02:22;21.00;99.90
39371;DHT22;25099;51.946;4.838;2022-08-25T03:04:49;21.00;99.90
39371;DHT22;25099;51.946;4.838;2022-08-25T03:07:17;21.00;99.90
39371;DHT22;25099;51.946;4.838;2022-08-25T03:09:43;21.00;99.90
39371;DHT22;25099;51.946;4.838;2022-08-25T03:12:09;21.00;99.90
39371;DHT22;25099;51.946;4.838;2022-08-25T03:14:35;21.00;99.90
39371;DHT22;25099;51.946;4.838;2022-08-25T03:17:00;21.00;99.90
39371;DHT22;25099;51.946;4.838;2022-08-25T03:19:26;21.00;99.90
39371;DHT22;25099;51.946;4.838;2022-08-25T03:21:52;21.00;99.90
39371;DHT22;25099;51.946;4.838;2022-08-25T03:24:20;21.00;99.90
39371;DHT22;25099;51.946;4.838;2022-08-25T03:26:46;21.00;99.90
39371;DHT22;25099;51.946;4.838;2022-08-25T03:29:18;21.00;99.90
39371;DHT22;25099;51.946;4.838;2022-08-25T03:31:44;21.00;99.90
39371;DHT22;25099;51.946;4.838;2022-08-25T03:34:14;21.00;99.90
39371;DHT22;25099;51.946;4.838;2022-08-25T03:36:41;21.00;99.90
39371;DHT22;25099;51.946;4.838;2022-08-25T03:39:07;21.00;99.90
39371;DHT22;25099;51.946;4.838;2022-08-25T03:41:33;20.90;99.90
39371;DHT22;25099;51.946;4.838;2022-08-25T03:44:00;21.00;99.90
39371;DHT22;25099;51.946;4.838;2022-08-25T03:46:33;20.90;99.90
39371;DHT22;25099;51.946;4.838;2022-08-25T03:49:01;21.00;99.90
39371;DHT22;25099;51.946;4.838;2022-08-25T03:51:46;20.90;99.90
39371;DHT22;25099;51.946;4.838;2022-08-25T03:54:12;20.90;99.90
39371;DHT22;25099;51.946;4.838;2022-08-25T03:56:39;20.90;99.90
39371;DHT22;25099;51.946;4.838;2022-08-25T03:59:04;20.90;99.90
39371;DHT22;25099;51.946;4.838;2022-08-25T04:01:33;20.90;99.90
39371;DHT22;25099;51.946;4.838;2022-08-25T04:04:00;20.80;99.90
39371;DHT22;25099;51.946;4.838;2022-08-25T04:06:25;20.80;99.90
39371;DHT22;25099;51.946;4.838;2022-08-25T04:08:51;20.80;99.90
39371;DHT22;25099;51.946;4.838;2022-08-25T04:11:21;20.80;99.90
39371;DHT22;25099;51.946;4.838;2022-08-25T04:13:48;20.80;99.90
39371;DHT22;25099;51.946;4.838;2022-08-25T04:16:17;20.80;99.90
39371;DHT22;25099;51.946;4.838;2022-08-25T04:18:45;20.80;99.90
39371;DHT22;25099;51.946;4.838;2022-08-25T04:21:12;20.80;99.90
39371;DHT22;25099;51.946;4.838;2022-08-25T04:23:40;20.80;99.90
39371;DHT22;25099;51.946;4.838;2022-08-25T04:26:23;20.80;99.90
39371;DHT22;25099;51.946;4.838;2022-08-25T04:28:49;20.80;99.90
39371;DHT22;25099;51.946;4.838;2022-08-25T04:31:17;20.80;99.90
39371;DHT22;25099;51.946;4.838;2022-08-25T04:33:43;20.80;99.90
39371;DHT22;25099;51.946;4.838;2022-08-25T04:36:11;20.80;99.90
39371;DHT22;25099;51.946;4.838;2022-08-25T04:38:37;20.80;99.90
39371;DHT22;25099;51.946;4.838;2022-08-25T04:41:04;20.80;99.90
39371;DHT22;25099;51.946;4.838;2022-08-25T04:43:31;20.80;99.90
39371;DHT22;25099;51.946;4.838;2022-08-25T04:45:58;20.80;99.90
39371;DHT22;25099;51.946;4.838;2022-08-25T04:48:24;20.90;99.90
39371;DHT22;25099;51.946;4.838;2022-08-25T04:50:49;20.80;99.90
39371;DHT22;25099;51.946;4.838;2022-08-25T04:53:16;20.80;99.90
39371;DHT22;25099;51.946;4.838;2022-08-25T04:55:44;20.80;99.90
39371;DHT22;25099;51.946;4.838;2022-08-25T04:58:12;20.80;99.90
39371;DHT22;25099;51.946;4.838;2022-08-25T05:00:39;20.90;99.90
39371;DHT22;25099;51.946;4.838;2022-08-25T05:03:05;20.80;99.90
39371;DHT22;25099;51.946;4.838;2022-08-25T05:05:35;20.80;99.90
39371;DHT22;25099;51.946;4.838;2022-08-25T05:08:00;20.80;99.90
39371;DHT22;25099;51.946;4.838;2022-08-25T05:10:26;20.80;99.90
39371;DHT22;25099;51.946;4.838;2022-08-25T05:12:52;20.80;99.90
39371;DHT22;25099;51.946;4.838;2022-08-25T05:15:17;20.90;99.90
39371;DHT22;25099;51.946;4.838;2022-08-25T05:18:02;20.90;99.90
39371;DHT22;25099;51.946;4.838;2022-08-25T05:20:27;20.90;99.90
39371;DHT22;25099;51.946;4.838;2022-08-25T05:22:55;20.90;99.90
39371;DHT22;25099;51.946;4.838;2022-08-25T05:25:21;20.90;99.90
39371;DHT22;25099;51.946;4.838;2022-08-25T05:27:46;20.90;99.90
39371;DHT22;25099;51.946;4.838;2022-08-25T05:30:12;21.00;99.90
39371;DHT22;25099;51.946;4.838;2022-08-25T05:32:38;21.00;99.90
39371;DHT22;25099;51.946;4.838;2022-08-25T05:35:05;21.00;99.90
39371;DHT22;25099;51.946;4.838;2022-08-25T05:37:31;21.10;99.90
39371;DHT22;25099;51.946;4.838;2022-08-25T05:39:56;21.10;99.90
39371;DHT22;25099;51.946;4.838;2022-08-25T05:42:26;21.20;99.90
39371;DHT22;25099;51.946;4.838;2022-08-25T05:44:53;21.20;99.90
39371;DHT22;25099;51.946;4.838;2022-08-25T05:47:19;21.30;99.90
39371;DHT22;25099;51.946;4.838;2022-08-25T05:49:44;21.40;99.90
39371;DHT22;25099;51.946;4.838;2022-08-25T05:52:10;21.50;99.90
39371;DHT22;25099;51.946;4.838;2022-08-25T05:54:37;21.50;99.90
39371;DHT22;25099;51.946;4.838;2022-08-25T05:57:05;21.60;99.90
39371;DHT22;25099;51.946;4.838;2022-08-25T05:59:31;21.80;99.90
39371;DHT22;25099;51.946;4.838;2022-08-25T06:01:56;21.80;99.90
39371;DHT22;25099;51.946;4.838;2022-08-25T06:04:40;22.00;99.90
39371;DHT22;25099;51.946;4.838;2022-08-25T06:07:06;22.10;99.90
39371;DHT22;25099;51.946;4.838;2022-08-25T06:09:32;22.20;99.90
39371;DHT22;25099;51.946;4.838;2022-08-25T06:11:57;22.20;99.90
39371;DHT22;25099;51.946;4.838;2022-08-25T06:14:23;22.40;99.90
39371;DHT22;25099;51.946;4.838;2022-08-25T06:16:49;22.40;99.90
39371;DHT22;25099;51.946;4.838;2022-08-25T06:19:17;22.50;99.90
39371;DHT22;25099;51.946;4.838;2022-08-25T06:21:43;22.50;99.90
39371;DHT22;25099;51.946;4.838;2022-08-25T06:24:09;22.60;99.90
39371;DHT22;25099;51.946;4.838;2022-08-25T06:26:35;22.60;99.90
39371;DHT22;25099;51.946;4.838;2022-08-25T06:29:01;22.60;99.90
39371;DHT22;25099;51.946;4.838;2022-08-25T06:31:26;22.60;99.90
39371;DHT22;25099;51.946;4.838;2022-08-25T06:33:52;22.60;99.90
39371;DHT22;25099;51.946;4.838;2022-08-25T06:36:20;22.60;99.90
39371;DHT22;25099;51.946;4.838;2022-08-25T06:38:46;22.60;99.90
39371;DHT22;25099;51.946;4.838;2022-08-25T06:41:12;22.50;99.90
39371;DHT22;25099;51.946;4.838;2022-08-25T06:43:39;22.50;99.90
39371;DHT22;25099;51.946;4.838;2022-08-25T06:46:13;22.50;99.90
39371;DHT22;25099;51.946;4.838;2022-08-25T06:48:39;22.40;99.90
39371;DHT22;25099;51.946;4.838;2022-08-25T06:51:10;22.60;99.90
39371;DHT22;25099;51.946;4.838;2022-08-25T06:53:36;22.60;99.90
39371;DHT22;25099;51.946;4.838;2022-08-25T06:56:03;22.70;99.90
39371;DHT22;25099;51.946;4.838;2022-08-25T06:58:29;22.80;99.90
39371;DHT22;25099;51.946;4.838;2022-08-25T07:00:55;22.90;99.90
39371;DHT22;25099;51.946;4.838;2022-08-25T07:03:20;22.90;99.90
39371;DHT22;25099;51.946;4.838;2022-08-25T07:05:53;23.20;99.90
39371;DHT22;25099;51.946;4.838;2022-08-25T07:08:19;23.30;99.90
39371;DHT22;25099;51.946;4.838;2022-08-25T07:10:45;23.40;99.90
39371;DHT22;25099;51.946;4.838;2022-08-25T07:13:11;23.40;99.90
39371;DHT22;25099;51.946;4.838;2022-08-25T07:15:41;23.50;99.90
39371;DHT22;25099;51.946;4.838;2022-08-25T07:18:06;23.50;99.90
39371;DHT22;25099;51.946;4.838;2022-08-25T07:20:35;23.40;99.90
39371;DHT22;25099;51.946;4.838;2022-08-25T07:23:01;23.40;99.90
39371;DHT22;25099;51.946;4.838;2022-08-25T07:25:27;23.40;99.90
39371;DHT22;25099;51.946;4.838;2022-08-25T07:27:53;23.40;99.90
39371;DHT22;25099;51.946;4.838;2022-08-25T07:30:18;23.40;99.90
39371;DHT22;25099;51.946;4.838;2022-08-25T07:32:44;23.40;99.90
39371;DHT22;25099;51.946;4.838;2022-08-25T07:35:10;23.50;99.90
39371;DHT22;25099;51.946;4.838;2022-08-25T07:37:45;23.50;99.90
39371;DHT22;25099;51.946;4.838;2022-08-25T07:40:18;23.60;99.90
39371;DHT22;25099;51.946;4.838;2022-08-25T07:42:46;23.70;99.90
39371;DHT22;25099;51.946;4.838;2022-08-25T07:45:13;23.80;99.90
39371;DHT22;25099;51.946;4.838;2022-08-25T07:47:39;23.90;99.90
39371;DHT22;25099;51.946;4.838;2022-08-25T07:50:09;24.00;99.90
39371;DHT22;25099;51.946;4.838;2022-08-25T07:52:37;24.00;99.90
39371;DHT22;25099;51.946;4.838;2022-08-25T07:55:02;24.10;99.90
39371;DHT22;25099;51.946;4.838;2022-08-25T07:57:28;24.20;99.90
39371;DHT22;25099;51.946;4.838;2022-08-25T07:59:55;24.30;99.90
39371;DHT22;25099;51.946;4.838;2022-08-25T08:02:20;24.40;99.90
39371;DHT22;25099;51.946;4.838;2022-08-25T08:04:50;24.40;99.90
39371;DHT22;25099;51.946;4.838;2022-08-25T08:07:18;24.50;99.90
39371;DHT22;25099;51.946;4.838;2022-08-25T08:09:43;24.50;99.90
39371;DHT22;25099;51.946;4.838;2022-08-25T08:12:09;24.70;99.90
39371;DHT22;25099;51.946;4.838;2022-08-25T08:14:36;24.80;99.90
39371;DHT22;25099;51.946;4.838;2022-08-25T08:17:08;24.80;99.90
39371;DHT22;25099;51.946;4.838;2022-08-25T08:19:34;24.90;99.90
39371;DHT22;25099;51.946;4.838;2022-08-25T08:22:01;25.00;99.90
39371;DHT22;25099;51.946;4.838;2022-08-25T08:24:31;25.10;99.90
39371;DHT22;25099;51.946;4.838;2022-08-25T08:26:58;25.10;99.90
39371;DHT22;25099;51.946;4.838;2022-08-25T08:29:24;25.10;99.90
39371;DHT22;25099;51.946;4.838;2022-08-25T08:31:50;25.20;99.90
39371;DHT22;25099;51.946;4.838;2022-08-25T08:34:16;25.30;99.90
39371;DHT22;25099;51.946;4.838;2022-08-25T08:36:41;25.30;99.90
39371;DHT22;25099;51.946;4.838;2022-08-25T08:39:07;25.40;99.90
39371;DHT22;25099;51.946;4.838;2022-08-25T08:44:53;25.60;99.90
39371;DHT22;25099;51.946;4.838;2022-08-25T08:47:41;25.60;99.90
39371;DHT22;25099;51.946;4.838;2022-08-25T08:55:55;25.90;99.90
39371;DHT22;25099;51.946;4.838;2022-08-25T08:58:23;26.00;99.90
39371;DHT22;25099;51.946;4.838;2022-08-25T09:00:54;26.10;99.90
39371;DHT22;25099;51.946;4.838;2022-08-25T09:03:34;26.20;99.90
39371;DHT22;25099;51.946;4.838;2022-08-25T09:06:27;26.20;99.40
39371;DHT22;25099;51.946;4.838;2022-08-25T09:08:57;26.20;98.80
39371;DHT22;25099;51.946;4.838;2022-08-25T09:16:59;26.60;98.70
39371;DHT22;25099;51.946;4.838;2022-08-25T09:28:21;27.10;98.00
39371;DHT22;25099;51.946;4.838;2022-08-25T09:31:01;27.10;97.60
39371;DHT22;25099;51.946;4.838;2022-08-25T09:33:29;27.20;97.40
39371;DHT22;25099;51.946;4.838;2022-08-25T09:35:56;27.30;97.10
39371;DHT22;25099;51.946;4.838;2022-08-25T09:38:24;27.40;97.10
39371;DHT22;25099;51.946;4.838;2022-08-25T09:40:54;27.50;96.80
39371;DHT22;25099;51.946;4.838;2022-08-25T09:43:28;27.70;95.60
39371;DHT22;25099;51.946;4.838;2022-08-25T09:46:08;27.80;95.40
39371;DHT22;25099;51.946;4.838;2022-08-25T09:48:50;27.80;95.20
39371;DHT22;25099;51.946;4.838;2022-08-25T09:51:19;27.90;95.10
39371;DHT22;25099;51.946;4.838;2022-08-25T09:53:58;27.90;94.90
39371;DHT22;25099;51.946;4.838;2022-08-25T09:56:27;27.80;94.80
39371;DHT22;25099;51.946;4.838;2022-08-25T09:59:21;27.80;94.80
39371;DHT22;25099;51.946;4.838;2022-08-25T10:01:47;27.70;94.50
39371;DHT22;25099;51.946;4.838;2022-08-25T10:04:14;27.70;94.30
39371;DHT22;25099;51.946;4.838;2022-08-25T10:06:44;27.70;94.50
39371;DHT22;25099;51.946;4.838;2022-08-25T10:09:27;27.70;94.50
39371;DHT22;25099;51.946;4.838;2022-08-25T10:11:55;27.80;94.60
39371;DHT22;25099;51.946;4.838;2022-08-25T10:14:31;27.90;94.70
39371;DHT22;25099;51.946;4.838;2022-08-25T10:17:28;28.00;94.10
39371;DHT22;25099;51.946;4.838;2022-08-25T10:20:15;28.20;93.90
39371;DHT22;25099;51.946;4.838;2022-08-25T10:22:42;28.30;94.00
39371;DHT22;25099;51.946;4.838;2022-08-25T10:25:11;28.50;93.20
39371;DHT22;25099;51.946;4.838;2022-08-25T10:30:22;29.00;93.00
39371;DHT22;25099;51.946;4.838;2022-08-25T10:38:36;29.50;92.30
39371;DHT22;25099;51.946;4.838;2022-08-25T10:45:29;29.50;92.00
39371;DHT22;25099;51.946;4.838;2022-08-25T10:50:54;29.70;91.40
39371;DHT22;25099;51.946;4.838;2022-08-25T10:56:17;29.90;91.10
39371;DHT22;25099;51.946;4.838;2022-08-25T11:01:39;30.10;90.90
39371;DHT22;25099;51.946;4.838;2022-08-25T11:04:14;30.10;90.90
39371;DHT22;25099;51.946;4.838;2022-08-25T11:06:51;30.20;90.80
39371;DHT22;25099;51.946;4.838;2022-08-25T11:09:24;30.30;90.40
39371;DHT22;25099;51.946;4.838;2022-08-25T11:13:02;30.30;90.70
39371;DHT22;25099;51.946;4.838;2022-08-25T11:15:16;30.40;90.50
39371;DHT22;25099;51.946;4.838;2022-08-25T11:18:04;30.50;89.90
39371;DHT22;25099;51.946;4.838;2022-08-25T11:23:40;30.70;88.70
39371;DHT22;25099;51.946;4.838;2022-08-25T11:26:11;30.70;88.20
39371;DHT22;25099;51.946;4.838;2022-08-25T11:31:25;30.80;87.80
39371;DHT22;25099;51.946;4.838;2022-08-25T11:33:58;30.80;86.60
39371;DHT22;25099;51.946;4.838;2022-08-25T11:36:30;30.90;87.60
39371;DHT22;25099;51.946;4.838;2022-08-25T11:39:15;30.90;87.80
39371;DHT22;25099;51.946;4.838;2022-08-25T11:42:11;30.90;86.00
39371;DHT22;25099;51.946;4.838;2022-08-25T11:47:48;30.90;85.00
39371;DHT22;25099;51.946;4.838;2022-08-25T11:50:53;30.90;85.60
39371;DHT22;25099;51.946;4.838;2022-08-25T11:53:24;30.90;85.80
39371;DHT22;25099;51.946;4.838;2022-08-25T11:56:00;31.00;84.50
39371;DHT22;25099;51.946;4.838;2022-08-25T11:58:48;31.00;85.10
39371;DHT22;25099;51.946;4.838;2022-08-25T12:04:37;31.30;84.20
39371;DHT22;25099;51.946;4.838;2022-08-25T12:12:35;31.40;81.80
39371;DHT22;25099;51.946;4.838;2022-08-25T12:23:30;31.60;80.90
39371;DHT22;25099;51.946;4.838;2022-08-25T12:26:03;31.60;78.70
39371;DHT22;25099;51.946;4.838;2022-08-25T12:29:01;31.60;79.20
39371;DHT22;25099;51.946;4.838;2022-08-25T12:34:32;31.80;78.80
39371;DHT22;25099;51.946;4.838;2022-08-25T12:37:11;31.90;79.20
39371;DHT22;25099;51.946;4.838;2022-08-25T12:39:44;32.10;77.60
39371;DHT22;25099;51.946;4.838;2022-08-25T12:42:39;32.20;78.10
39371;DHT22;25099;51.946;4.838;2022-08-25T12:47:49;32.30;78.20
39371;DHT22;25099;51.946;4.838;2022-08-25T12:50:26;32.30;76.70
39371;DHT22;25099;51.946;4.838;2022-08-25T12:52:54;32.40;77.00
39371;DHT22;25099;51.946;4.838;2022-08-25T12:55:25;32.40;76.20
39371;DHT22;25099;51.946;4.838;2022-08-25T12:57:55;32.40;75.20
39371;DHT22;25099;51.946;4.838;2022-08-25T13:00:28;32.40;76.00
39371;DHT22;25099;51.946;4.838;2022-08-25T13:05:46;32.40;74.50
39371;DHT22;25099;51.946;4.838;2022-08-25T13:16:34;32.60;73.70
39371;DHT22;25099;51.946;4.838;2022-08-25T13:19:04;32.70;74.50
39371;DHT22;25099;51.946;4.838;2022-08-25T13:21:36;32.80;74.60
39371;DHT22;25099;51.946;4.838;2022-08-25T13:24:10;32.90;74.30
39371;DHT22;25099;51.946;4.838;2022-08-25T13:26:40;33.00;74.20
39371;DHT22;25099;51.946;4.838;2022-08-25T13:31:39;33.20;72.00
39371;DHT22;25099;51.946;4.838;2022-08-25T13:34:28;33.30;73.10
39371;DHT22;25099;51.946;4.838;2022-08-25T13:36:55;33.30;71.40
39371;DHT22;25099;51.946;4.838;2022-08-25T13:39:39;33.20;70.70
39371;DHT22;25099;51.946;4.838;2022-08-25T13:42:14;33.20;70.60
39371;DHT22;25099;51.946;4.838;2022-08-25T13:44:40;33.30;71.50
39371;DHT22;25099;51.946;4.838;2022-08-25T13:47:13;33.30;69.60
39371;DHT22;25099;51.946;4.838;2022-08-25T13:49:45;33.30;71.40
39371;DHT22;25099;51.946;4.838;2022-08-25T13:52:25;33.40;70.30
39371;DHT22;25099;51.946;4.838;2022-08-25T13:54:51;33.30;70.50
39371;DHT22;25099;51.946;4.838;2022-08-25T13:57:23;33.30;71.20
39371;DHT22;25099;51.946;4.838;2022-08-25T13:59:55;33.20;71.00
39371;DHT22;25099;51.946;4.838;2022-08-25T14:02:41;33.10;70.50
39371;DHT22;25099;51.946;4.838;2022-08-25T14:05:07;32.90;71.20
39371;DHT22;25099;51.946;4.838;2022-08-25T14:07:33;32.80;72.00
39371;DHT22;25099;51.946;4.838;2022-08-25T14:10:01;32.80;71.10
39371;DHT22;25099;51.946;4.838;2022-08-25T14:15:26;33.10;69.40
39371;DHT22;25099;51.946;4.838;2022-08-25T14:18:08;33.20;70.40
39371;DHT22;25099;51.946;4.838;2022-08-25T14:20:36;33.30;71.30
39371;DHT22;25099;51.946;4.838;2022-08-25T14:23:06;33.40;68.90
39371;DHT22;25099;51.946;4.838;2022-08-25T14:25:32;33.60;69.80
39371;DHT22;25099;51.946;4.838;2022-08-25T14:28:02;33.70;69.30
39371;DHT22;25099;51.946;4.838;2022-08-25T14:30:29;33.90;69.30
39371;DHT22;25099;51.946;4.838;2022-08-25T14:32:56;34.00;69.30
39371;DHT22;25099;51.946;4.838;2022-08-25T14:35:23;34.00;67.60
39371;DHT22;25099;51.946;4.838;2022-08-25T14:37:48;33.90;67.90
39371;DHT22;25099;51.946;4.838;2022-08-25T14:40:14;33.70;69.90
39371;DHT22;25099;51.946;4.838;2022-08-25T14:42:46;33.60;69.30
39371;DHT22;25099;51.946;4.838;2022-08-25T14:45:17;33.60;69.30
39371;DHT22;25099;51.946;4.838;2022-08-25T14:47:43;33.60;68.30
39371;DHT22;25099;51.946;4.838;2022-08-25T14:50:11;33.60;68.70
39371;DHT22;25099;51.946;4.838;2022-08-25T14:52:39;33.70;69.50
39371;DHT22;25099;51.946;4.838;2022-08-25T14:55:05;33.70;68.00
39371;DHT22;25099;51.946;4.838;2022-08-25T14:57:31;33.70;68.50
39371;DHT22;25099;51.946;4.838;2022-08-25T14:59:56;33.70;67.90
39371;DHT22;25099;51.946;4.838;2022-08-25T15:02:23;33.80;68.30
39371;DHT22;25099;51.946;4.838;2022-08-25T15:04:55;33.80;68.30
39371;DHT22;25099;51.946;4.838;2022-08-25T15:07:22;33.80;67.50
39371;DHT22;25099;51.946;4.838;2022-08-25T15:10:07;33.80;67.60
39371;DHT22;25099;51.946;4.838;2022-08-25T15:12:33;33.90;68.90
39371;DHT22;25099;51.946;4.838;2022-08-25T15:14:59;33.80;72.50
39371;DHT22;25099;51.946;4.838;2022-08-25T15:17:26;33.70;73.30
39371;DHT22;25099;51.946;4.838;2022-08-25T15:19:52;33.80;73.50
39371;DHT22;25099;51.946;4.838;2022-08-25T15:22:18;33.90;72.40
39371;DHT22;25099;51.946;4.838;2022-08-25T15:24:43;33.80;71.40
39371;DHT22;25099;51.946;4.838;2022-08-25T15:27:09;33.80;70.90
39371;DHT22;25099;51.946;4.838;2022-08-25T15:29:36;33.80;69.90
39371;DHT22;25099;51.946;4.838;2022-08-25T15:32:06;33.90;72.00
39371;DHT22;25099;51.946;4.838;2022-08-25T15:34:33;33.90;72.60
39371;DHT22;25099;51.946;4.838;2022-08-25T15:37:05;33.80;76.70
39371;DHT22;25099;51.946;4.838;2022-08-25T15:39:31;33.70;78.50
39371;DHT22;25099;51.946;4.838;2022-08-25T15:41:56;33.70;78.70
39371;DHT22;25099;51.946;4.838;2022-08-25T15:44:22;33.70;77.50
39371;DHT22;25099;51.946;4.838;2022-08-25T15:46:48;33.50;79.30
39371;DHT22;25099;51.946;4.838;2022-08-25T15:49:14;33.40;80.10
39371;DHT22;25099;51.946;4.838;2022-08-25T15:51:39;33.20;81.00
39371;DHT22;25099;51.946;4.838;2022-08-25T15:54:06;33.00;81.70
39371;DHT22;25099;51.946;4.838;2022-08-25T15:56:33;32.80;84.20
39371;DHT22;25099;51.946;4.838;2022-08-25T15:58:58;32.70;84.90
39371;DHT22;25099;51.946;4.838;2022-08-25T16:01:27;32.70;87.10
39371;DHT22;25099;51.946;4.838;2022-08-25T16:03:54;32.60;88.80
39371;DHT22;25099;51.946;4.838;2022-08-25T16:06:20;32.30;90.30
39371;DHT22;25099;51.946;4.838;2022-08-25T16:08:46;32.00;90.70
39371;DHT22;25099;51.946;4.838;2022-08-25T16:11:24;31.80;91.30
39371;DHT22;25099;51.946;4.838;2022-08-25T16:13:51;31.50;92.00
39371;DHT22;25099;51.946;4.838;2022-08-25T16:16:17;31.10;92.60
39371;DHT22;25099;51.946;4.838;2022-08-25T16:18:44;30.60;93.10
39371;DHT22;25099;51.946;4.838;2022-08-25T16:21:12;30.10;93.60
39371;DHT22;25099;51.946;4.838;2022-08-25T16:23:37;29.70;93.70
39371;DHT22;25099;51.946;4.838;2022-08-25T16:26:05;29.40;94.00
39371;DHT22;25099;51.946;4.838;2022-08-25T16:28:34;29.40;94.60
39371;DHT22;25099;51.946;4.838;2022-08-25T16:30:59;29.40;94.60
39371;DHT22;25099;51.946;4.838;2022-08-25T16:33:25;29.40;94.70
39371;DHT22;25099;51.946;4.838;2022-08-25T16:35:51;29.40;94.60
39371;DHT22;25099;51.946;4.838;2022-08-25T16:38:16;29.30;94.90
39371;DHT22;25099;51.946;4.838;2022-08-25T16:40:42;29.30;94.70
39371;DHT22;25099;51.946;4.838;2022-08-25T16:43:09;29.10;95.00
39371;DHT22;25099;51.946;4.838;2022-08-25T16:45:35;29.10;95.60
39371;DHT22;25099;51.946;4.838;2022-08-25T16:48:01;29.00;96.20
39371;DHT22;25099;51.946;4.838;2022-08-25T16:50:27;28.90;96.50
39371;DHT22;25099;51.946;4.838;2022-08-25T16:52:55;28.70;96.60
39371;DHT22;25099;51.946;4.838;2022-08-25T16:55:39;28.70;96.90
39371;DHT22;25099;51.946;4.838;2022-08-25T16:58:04;28.60;97.40
39371;DHT22;25099;51.946;4.838;2022-08-25T17:00:30;28.50;97.50
39371;DHT22;25099;51.946;4.838;2022-08-25T17:03:01;28.40;97.90
39371;DHT22;25099;51.946;4.838;2022-08-25T17:05:30;28.20;97.90
39371;DHT22;25099;51.946;4.838;2022-08-25T17:07:59;27.70;97.90
39371;DHT22;25099;51.946;4.838;2022-08-25T17:10:44;27.60;98.40
39371;DHT22;25099;51.946;4.838;2022-08-25T17:13:10;27.40;99.10
39371;DHT22;25099;51.946;4.838;2022-08-25T17:15:42;27.20;99.40
39371;DHT22;25099;51.946;4.838;2022-08-25T17:18:09;27.10;99.40